createdAt,value
2022-11-10T00:00:36.347Z,98296.22
2022-11-10T00:03:03.735Z,98291.81
2022-11-10T00:05:30.466Z,98290.00
2022-11-10T00:07:57.231Z,98292.59
2022-11-10T00:10:24.097Z,98296.09
2022-11-10T00:12:52.430Z,98293.06
2022-11-10T00:15:37.467Z,98294.09
2022-11-10T00:18:04.321Z,98304.84
2022-11-10T00:20:31.426Z,98303.38
2022-11-10T00:22:58.095Z,98296.56
2022-11-10T00:25:24.966Z,98302.88
2022-11-10T00:27:51.604Z,98308.00
2022-11-10T00:30:18.370Z,98317.75
2022-11-10T00:32:46.709Z,98317.94
2022-11-10T00:35:13.387Z,98323.63
2022-11-10T00:37:40.092Z,98316.44
2022-11-10T00:40:07.013Z,98312.06
2022-11-10T00:42:33.662Z,98320.53
2022-11-10T00:45:00.341Z,98320.72
2022-11-10T00:47:26.992Z,98321.47
2022-11-10T00:49:53.644Z,98323.97
2022-11-10T00:52:20.272Z,98325.50
2022-11-10T00:54:46.943Z,98329.31
2022-11-10T00:57:13.551Z,98335.69
2022-11-10T00:59:40.200Z,98334.41
2022-11-10T01:02:06.994Z,98318.31
2022-11-10T01:04:33.729Z,98334.03
2022-11-10T01:07:00.516Z,98337.16
2022-11-10T01:09:27.238Z,98334.22
2022-11-10T01:11:53.854Z,98332.75
2022-11-10T01:14:20.511Z,98340.31
2022-11-10T01:16:47.197Z,98335.22
2022-11-10T01:19:13.867Z,98332.97
2022-11-10T01:21:40.497Z,98342.31
2022-11-10T01:24:07.206Z,98334.00
2022-11-10T01:26:33.948Z,98337.84
2022-11-10T01:29:00.609Z,98337.16
2022-11-10T01:31:27.317Z,98340.34
2022-11-10T01:33:53.999Z,98339.31
2022-11-10T01:36:20.707Z,98341.63
2022-11-10T01:38:47.350Z,98338.22
2022-11-10T01:41:14.133Z,98338.06
2022-11-10T01:43:40.902Z,98342.59
2022-11-10T01:46:08.459Z,98347.31
2022-11-10T01:48:36.925Z,98351.12
2022-11-10T01:51:07.651Z,98352.16
2022-11-10T01:53:34.915Z,98355.88
2022-11-10T01:56:01.668Z,98359.91
2022-11-10T01:58:29.994Z,98368.19
2022-11-10T02:00:56.771Z,98363.72
2022-11-10T02:03:23.832Z,98369.91
2022-11-10T02:05:50.852Z,98371.47
2022-11-10T02:08:18.244Z,98374.41
2022-11-10T02:10:44.927Z,98375.41
2022-11-10T02:13:11.769Z,98374.94
2022-11-10T02:15:38.445Z,98374.09
2022-11-10T02:18:05.081Z,98379.88
2022-11-10T02:20:31.779Z,98376.56
2022-11-10T02:22:58.439Z,98384.72
2022-11-10T02:25:25.865Z,98376.34
2022-11-10T02:27:52.496Z,98374.72
2022-11-10T02:30:20.455Z,98378.88
2022-11-10T02:32:49.565Z,98373.41
2022-11-10T02:35:16.240Z,98375.34
2022-11-10T02:37:42.878Z,98372.28
2022-11-10T02:40:10.363Z,98367.59
2022-11-10T02:42:37.035Z,98363.16
2022-11-10T02:45:03.796Z,98366.84
2022-11-10T02:47:30.525Z,98377.56
2022-11-10T02:49:57.185Z,98371.41
2022-11-10T02:52:23.833Z,98376.87
2022-11-10T02:54:50.466Z,98386.63
2022-11-10T02:57:17.096Z,98393.81
2022-11-10T02:59:43.741Z,98386.78
2022-11-10T03:02:10.382Z,98396.38
2022-11-10T03:04:37.032Z,98389.53
2022-11-10T03:07:03.830Z,98402.16
2022-11-10T03:09:30.494Z,98407.37
2022-11-10T03:11:57.132Z,98409.84
2022-11-10T03:14:23.802Z,98409.56
2022-11-10T03:16:50.488Z,98413.00
2022-11-10T03:19:17.103Z,98409.34
2022-11-10T03:21:43.741Z,98412.41
2022-11-10T03:24:10.475Z,98415.78
2022-11-10T03:26:37.146Z,98418.78
2022-11-10T03:29:03.800Z,98419.56
2022-11-10T03:31:30.442Z,98420.41
2022-11-10T03:33:57.094Z,98422.91
2022-11-10T03:36:23.760Z,98426.06
2022-11-10T03:38:50.417Z,98427.34
2022-11-10T03:41:19.717Z,98430.87
2022-11-10T03:43:46.683Z,98431.06
2022-11-10T03:46:13.354Z,98434.41
2022-11-10T03:48:40.051Z,98434.53
2022-11-10T03:51:06.860Z,98432.78
2022-11-10T03:53:33.507Z,98437.03
2022-11-10T03:56:01.149Z,98431.37
2022-11-10T03:58:27.786Z,98429.03
2022-11-10T04:00:54.674Z,98434.00
2022-11-10T04:03:21.791Z,98438.69
2022-11-10T04:06:07.259Z,98447.28
2022-11-10T04:08:52.337Z,98448.41
2022-11-10T04:11:38.894Z,98449.28
2022-11-10T04:14:24.185Z,98459.34
2022-11-10T04:16:50.861Z,98471.13
2022-11-10T04:19:17.520Z,98478.31
2022-11-10T04:21:44.175Z,98487.00
2022-11-10T04:24:10.846Z,98482.06
2022-11-10T04:26:41.148Z,98489.44
2022-11-10T04:29:11.260Z,98477.06
2022-11-10T04:31:38.854Z,98491.25
2022-11-10T04:34:06.273Z,98492.53
2022-11-10T04:36:33.483Z,98486.97
2022-11-10T04:39:00.185Z,98488.25
2022-11-10T04:41:27.251Z,98489.56
2022-11-10T04:43:53.903Z,98490.66
2022-11-10T04:46:24.546Z,98486.41
2022-11-10T04:48:51.473Z,98492.50
2022-11-10T04:51:18.386Z,98493.41
2022-11-10T04:53:45.058Z,98482.56
2022-11-10T04:56:14.165Z,98489.84
2022-11-10T04:58:40.787Z,98492.66
2022-11-10T05:01:07.473Z,98498.03
2022-11-10T05:03:34.189Z,98499.22
2022-11-10T05:06:00.823Z,98504.16
2022-11-10T05:08:27.464Z,98511.34
2022-11-10T05:10:54.089Z,98510.78
2022-11-10T05:13:21.030Z,98526.31
2022-11-10T05:15:47.942Z,98524.44
2022-11-10T05:18:14.657Z,98520.88
2022-11-10T05:20:41.337Z,98522.78
2022-11-10T05:23:26.362Z,98523.69
2022-11-10T05:25:53.032Z,98522.81
2022-11-10T05:28:19.935Z,98521.03
2022-11-10T05:30:46.579Z,98520.66
2022-11-10T05:33:13.355Z,98527.50
2022-11-10T05:35:40.327Z,98523.75
2022-11-10T05:38:07.117Z,98530.16
2022-11-10T05:40:34.114Z,98528.81
2022-11-10T05:43:00.802Z,98526.38
2022-11-10T05:45:27.995Z,98537.84
2022-11-10T05:47:55.016Z,98534.09
2022-11-10T05:50:22.123Z,98542.47
2022-11-10T05:52:50.501Z,98546.78
2022-11-10T05:55:17.989Z,98562.47
2022-11-10T05:57:47.908Z,98557.50
2022-11-10T06:00:15.176Z,98566.16
2022-11-10T06:02:41.828Z,98584.78
2022-11-10T06:05:08.946Z,98599.22
2022-11-10T06:07:35.741Z,98602.47
2022-11-10T06:10:02.540Z,98602.31
2022-11-10T06:12:30.543Z,98603.09
2022-11-10T06:14:58.222Z,98617.12
2022-11-10T06:17:28.002Z,98619.13
2022-11-10T06:19:54.650Z,98625.16
2022-11-10T06:22:21.295Z,98630.47
2022-11-10T06:24:47.990Z,98636.69
2022-11-10T06:27:14.688Z,98640.03
2022-11-10T06:29:41.300Z,98652.53
2022-11-10T06:32:07.984Z,98646.44
2022-11-10T06:34:34.657Z,98645.53
2022-11-10T06:37:01.284Z,98652.28
2022-11-10T06:39:27.944Z,98650.78
2022-11-10T06:41:54.745Z,98659.28
2022-11-10T06:44:21.424Z,98662.69
2022-11-10T06:46:48.043Z,98661.03
2022-11-10T06:49:14.697Z,98667.59
2022-11-10T06:51:41.347Z,98680.78
2022-11-10T06:54:08.029Z,98685.50
2022-11-10T06:56:35.169Z,98687.97
2022-11-10T06:59:01.809Z,98694.84
2022-11-10T07:01:28.506Z,98691.25
2022-11-10T07:04:18.112Z,98685.44
2022-11-10T07:06:42.045Z,98693.97
2022-11-10T07:09:08.774Z,98696.88
2022-11-10T07:11:35.417Z,98698.94
2022-11-10T07:14:02.078Z,98701.59
2022-11-10T07:16:28.768Z,98699.88
2022-11-10T07:18:55.423Z,98711.16
2022-11-10T07:21:22.067Z,98719.53
2022-11-10T07:23:48.685Z,98716.97
2022-11-10T07:26:15.315Z,98720.13
2022-11-10T07:28:42.930Z,98735.25
2022-11-10T07:31:09.566Z,98745.59
2022-11-10T07:33:36.250Z,98739.38
2022-11-10T07:36:07.490Z,98732.69
2022-11-10T07:38:34.157Z,98736.56
2022-11-10T07:41:00.937Z,98742.53
2022-11-10T07:43:27.622Z,98721.19
2022-11-10T07:45:54.261Z,98727.34
2022-11-10T07:48:20.947Z,98738.88
2022-11-10T07:50:47.623Z,98738.44
2022-11-10T07:53:15.227Z,98742.13
2022-11-10T07:55:42.940Z,98738.94
2022-11-10T07:58:09.979Z,98748.00
2022-11-10T08:00:37.107Z,98756.78
2022-11-10T08:03:03.768Z,98750.16
2022-11-10T08:05:30.651Z,98745.97
2022-11-10T08:07:57.385Z,98765.69
2022-11-10T08:10:24.129Z,98771.19
2022-11-10T08:12:54.946Z,98768.59
2022-11-10T08:15:21.645Z,98771.22
2022-11-10T08:17:48.278Z,98776.47
2022-11-10T08:20:14.997Z,98776.41
2022-11-10T08:22:42.125Z,98784.16
2022-11-10T08:25:08.943Z,98779.78
2022-11-10T08:27:35.560Z,98774.19
2022-11-10T08:30:02.245Z,98783.38
2022-11-10T08:32:28.885Z,98794.22
2022-11-10T08:34:56.565Z,98787.34
2022-11-10T08:37:23.200Z,98784.00
2022-11-10T08:39:49.846Z,98788.34
2022-11-10T08:42:16.480Z,98795.63
2022-11-10T08:44:43.112Z,98796.16
2022-11-10T08:47:09.729Z,98804.37
2022-11-10T08:49:36.420Z,98811.22
2022-11-10T08:52:03.088Z,98809.44
2022-11-10T08:54:29.730Z,98818.34
2022-11-10T08:56:56.368Z,98828.59
2022-11-10T08:59:23.065Z,98825.38
2022-11-10T09:01:49.707Z,98831.78
2022-11-10T09:04:16.479Z,98830.78
2022-11-10T09:06:43.218Z,98830.72
2022-11-10T09:09:10.667Z,98845.38
2022-11-10T09:11:37.304Z,98844.22
2022-11-10T09:14:03.971Z,98839.25
2022-11-10T09:16:30.673Z,98838.88
2022-11-10T09:18:57.319Z,98837.72
2022-11-10T09:21:23.972Z,98845.91
2022-11-10T09:23:50.602Z,98850.72
2022-11-10T09:26:17.306Z,98860.34
2022-11-10T09:28:43.932Z,98850.69
2022-11-10T09:31:10.638Z,98858.13
2022-11-10T09:33:37.340Z,98860.63
2022-11-10T09:36:04.023Z,98873.63
2022-11-10T09:38:30.676Z,98867.31
2022-11-10T09:41:03.009Z,98870.25
2022-11-10T09:43:38.836Z,98865.00
2022-11-10T09:46:16.791Z,98885.34
2022-11-10T09:48:44.888Z,98889.25
2022-11-10T09:51:13.242Z,98884.16
2022-11-10T09:53:44.857Z,98893.59
2022-11-10T09:56:12.789Z,98888.22
2022-11-10T09:58:40.880Z,98895.91
2022-11-10T10:02:15.487Z,98906.94
2022-11-10T10:05:06.881Z,98906.94
2022-11-10T10:07:59.776Z,98907.03
2022-11-10T10:10:45.761Z,98910.72
2022-11-10T10:13:37.066Z,98914.50
2022-11-10T10:16:12.740Z,98909.50
2022-11-10T10:18:51.703Z,98911.09
2022-11-10T10:21:33.777Z,98912.38
2022-11-10T10:24:13.779Z,98913.59
2022-11-10T10:26:51.665Z,98916.84
2022-11-10T10:29:48.242Z,98914.00
2022-11-10T10:32:16.645Z,98920.19
2022-11-10T10:34:44.832Z,98918.50
2022-11-10T10:37:41.784Z,98917.66
2022-11-10T10:40:14.207Z,98924.19
2022-11-10T10:42:41.349Z,98934.06
2022-11-10T10:45:29.235Z,98937.66
2022-11-10T10:47:56.815Z,98932.88
2022-11-10T11:43:29.920Z,98980.81
2022-11-10T11:46:16.978Z,98980.81
2022-11-10T11:48:51.435Z,98975.91
2022-11-10T11:51:37.595Z,98984.12
2022-11-10T11:54:33.803Z,98980.34
2022-11-10T11:57:24.507Z,98980.44
2022-11-10T12:00:10.976Z,98979.25
2022-11-10T12:03:01.518Z,98974.84
2022-11-10T12:05:31.509Z,98973.81
2022-11-10T12:08:06.470Z,98986.81
2022-11-10T12:14:17.018Z,98987.56
2022-11-10T12:16:57.194Z,98983.12
2022-11-10T12:19:51.367Z,98980.63
2022-11-10T12:22:39.107Z,98990.50
2022-11-10T12:25:30.859Z,99000.94
2022-11-10T12:28:25.839Z,99004.88
2022-11-10T12:31:01.461Z,99002.28
2022-11-10T12:33:38.866Z,99009.50
2022-11-10T12:36:08.820Z,99019.31
2022-11-10T12:39:08.460Z,99012.50
2022-11-10T12:41:40.177Z,99008.72
2022-11-10T12:44:21.658Z,99018.69
2022-11-10T12:46:52.254Z,99024.91
2022-11-10T12:49:31.414Z,99020.34
2022-11-10T12:52:15.907Z,99022.69
2022-11-10T12:54:44.428Z,99023.59
2022-11-10T12:57:18.585Z,99027.41
2022-11-10T13:00:01.544Z,99033.09
2022-11-10T13:02:41.218Z,99035.69
2022-11-10T13:05:14.012Z,99046.50
2022-11-10T13:07:47.203Z,99033.63
2022-11-10T13:10:24.896Z,99043.66
2022-11-10T13:13:18.083Z,99040.69
2022-11-10T13:15:44.877Z,99040.28
2022-11-10T13:18:12.230Z,99041.63
2022-11-10T13:20:39.010Z,99045.47
2022-11-10T13:23:24.136Z,99048.22
2022-11-10T13:26:07.903Z,99056.44
2022-11-10T13:28:47.112Z,99059.03
2022-11-10T13:31:29.438Z,99062.81
2022-11-10T13:34:14.568Z,99062.09
2022-11-10T13:36:45.776Z,99073.16
2022-11-10T13:39:17.048Z,99076.50
2022-11-10T13:41:48.274Z,99081.94
2022-11-10T13:44:36.337Z,99082.94
2022-11-10T13:47:09.332Z,99076.38
2022-11-10T13:49:50.341Z,99082.66
2022-11-10T13:55:28.256Z,99080.34
2022-11-10T14:00:49.481Z,99085.91
2022-11-10T14:03:53.556Z,99085.91
2022-11-10T14:06:40.500Z,99087.69
2022-11-10T14:09:29.261Z,99097.50
2022-11-10T14:12:07.891Z,99102.28
2022-11-10T14:14:34.709Z,99103.22
2022-11-10T14:17:01.347Z,99105.62
2022-11-10T14:19:34.438Z,99108.25
2022-11-10T14:22:16.306Z,99109.84
2022-11-10T14:24:54.315Z,99117.03
2022-11-10T14:27:24.435Z,99123.31
2022-11-10T14:30:09.116Z,99123.94
2022-11-10T14:32:35.966Z,99133.03
2022-11-10T14:35:02.654Z,99134.63
2022-11-10T14:37:29.862Z,99129.22
2022-11-10T14:40:00.833Z,99130.09
2022-11-10T14:42:30.722Z,99138.53
2022-11-10T14:45:18.759Z,99140.34
2022-11-10T14:47:55.117Z,99144.75
2022-11-10T14:50:33.203Z,99150.59
2022-11-10T14:53:07.590Z,99149.94
2022-11-10T14:55:35.822Z,99147.03
2022-11-10T14:58:13.627Z,99144.25
2022-11-10T15:00:41.590Z,99153.78
2022-11-10T15:03:11.871Z,99152.47
2022-11-10T15:05:39.038Z,99142.25
2022-11-10T15:08:06.368Z,99154.63
2022-11-10T15:10:41.708Z,99155.06
2022-11-10T15:13:14.460Z,99157.94
2022-11-10T15:15:42.034Z,99163.72
2022-11-10T15:18:26.189Z,99164.31
2022-11-10T15:21:01.890Z,99162.47
2022-11-10T15:23:36.607Z,99178.16
2022-11-10T15:26:04.913Z,99179.94
2022-11-10T15:28:36.362Z,99173.09
2022-11-10T15:31:06.198Z,99180.94
2022-11-10T15:33:35.196Z,99184.06
2022-11-10T15:36:32.352Z,99191.88
2022-11-10T15:39:20.271Z,99194.75
2022-11-10T15:41:48.278Z,99189.59
2022-11-10T15:44:24.577Z,99193.87
2022-11-10T15:46:53.029Z,99198.66
2022-11-10T15:49:30.835Z,99189.44
2022-11-10T15:52:06.816Z,99200.37
2022-11-10T15:54:35.447Z,99212.62
2022-11-10T15:57:02.331Z,99208.41
2022-11-10T15:59:29.798Z,99202.16
2022-11-10T16:01:56.886Z,99204.66
2022-11-10T16:04:27.145Z,99220.75
2022-11-10T16:06:54.033Z,99226.09
2022-11-10T16:09:21.020Z,99227.00
2022-11-10T16:11:48.010Z,99233.97
2022-11-10T16:14:16.167Z,99233.72
2022-11-10T16:16:44.506Z,99240.81
2022-11-10T16:19:12.091Z,99239.78
2022-11-10T16:21:39.179Z,99248.38
2022-11-10T16:24:06.398Z,99244.16
2022-11-10T16:26:33.822Z,99250.00
2022-11-10T16:29:00.751Z,99252.06
2022-11-10T16:31:27.877Z,99261.69
2022-11-10T16:33:54.694Z,99267.19
2022-11-10T16:36:21.358Z,99259.03
2022-11-10T16:38:49.410Z,99261.66
2022-11-10T16:41:16.548Z,99266.72
2022-11-10T16:43:43.448Z,99266.97
2022-11-10T16:46:24.909Z,99266.94
2022-11-10T16:48:54.860Z,99268.94
2022-11-10T16:51:31.364Z,99266.16
2022-11-10T16:53:59.700Z,99277.97
2022-11-10T16:56:27.464Z,99271.66
2022-11-10T16:59:01.217Z,99280.16
2022-11-10T17:01:29.739Z,99279.44
2022-11-10T17:03:59.247Z,99283.84
2022-11-10T17:06:27.886Z,99282.84
2022-11-10T17:08:59.433Z,99281.19
2022-11-10T17:11:26.724Z,99289.28
2022-11-10T17:13:53.589Z,99299.53
2022-11-10T17:16:22.286Z,99294.44
2022-11-10T17:18:49.466Z,99300.50
2022-11-10T17:21:16.476Z,99296.78
2022-11-10T17:23:43.360Z,99306.94
2022-11-10T17:26:14.955Z,99303.28
2022-11-10T17:28:42.846Z,99308.16
2022-11-10T17:31:09.687Z,99310.56
2022-11-10T17:33:36.342Z,99312.56
2022-11-10T17:36:05.248Z,99312.38
2022-11-10T17:38:33.174Z,99322.37
2022-11-10T17:41:00.088Z,99316.75
2022-11-10T17:43:27.018Z,99318.31
2022-11-10T17:45:53.878Z,99336.81
2022-11-10T17:48:21.449Z,99334.47
2022-11-10T17:50:48.384Z,99339.06
2022-11-10T17:53:23.823Z,99341.62
2022-11-10T17:55:51.267Z,99342.44
2022-11-10T17:58:18.495Z,99353.41
2022-11-10T18:00:46.201Z,99362.38
2022-11-10T18:03:18.265Z,99371.41
2022-11-10T18:05:45.660Z,99380.12
2022-11-10T18:08:13.585Z,99379.22
2022-11-10T18:10:47.880Z,99385.50
2022-11-10T18:13:15.261Z,99386.78
2022-11-10T18:15:44.037Z,99383.69
2022-11-10T18:18:15.228Z,99384.28
2022-11-10T18:20:42.384Z,99381.63
2022-11-10T18:23:11.696Z,99385.97
2022-11-10T18:25:40.104Z,99383.94
2022-11-10T18:28:07.186Z,99386.81
2022-11-10T18:30:35.429Z,99385.25
2022-11-10T18:33:03.332Z,99394.06
2022-11-10T18:35:30.370Z,99396.91
2022-11-10T18:37:58.357Z,99397.56
2022-11-10T18:40:25.303Z,99393.78
2022-11-10T18:42:56.861Z,99391.97
2022-11-10T18:45:24.433Z,99393.41
2022-11-10T18:47:51.927Z,99394.72
2022-11-10T18:50:20.096Z,99407.75
2022-11-10T18:52:47.030Z,99411.78
2022-11-10T18:55:14.095Z,99412.28
2022-11-10T18:57:41.012Z,99402.84
2022-11-10T19:00:08.605Z,99412.47
2022-11-10T19:02:35.537Z,99404.47
2022-11-10T19:05:02.686Z,99423.81
2022-11-10T19:07:30.920Z,99424.72
2022-11-10T19:09:57.828Z,99428.69
2022-11-10T19:12:26.755Z,99433.78
2022-11-10T19:14:53.809Z,99436.75
2022-11-10T19:17:20.725Z,99429.94
2022-11-10T19:19:50.838Z,99435.69
2022-11-10T19:22:20.540Z,99433.44
2022-11-10T19:25:06.371Z,99443.91
2022-11-10T19:27:34.243Z,99449.69
2022-11-10T19:30:01.121Z,99457.84
2022-11-10T19:32:27.754Z,99460.22
2022-11-10T19:34:55.828Z,99454.66
2022-11-10T19:37:22.712Z,99443.75
2022-11-10T19:39:49.563Z,99457.84
2022-11-10T19:42:16.204Z,99461.16
2022-11-10T19:44:43.069Z,99464.47
2022-11-10T19:47:09.701Z,99474.56
2022-11-10T19:49:38.791Z,99473.66
2022-11-10T19:52:05.835Z,99481.19
2022-11-10T19:54:32.675Z,99486.59
2022-11-10T19:56:59.525Z,99487.91
2022-11-10T19:59:26.383Z,99489.97
2022-11-10T20:01:53.834Z,99492.72
2022-11-10T20:04:20.808Z,99487.62
2022-11-10T20:06:47.760Z,99487.16
2022-11-10T20:09:14.678Z,99498.44
2022-11-10T20:11:41.338Z,99487.53
2022-11-10T20:14:08.213Z,99502.75
2022-11-10T20:16:34.925Z,99505.97
2022-11-10T20:19:01.775Z,99514.72
2022-11-10T20:21:28.426Z,99508.44
2022-11-10T20:23:56.208Z,99511.81
2022-11-10T20:26:24.228Z,99512.84
2022-11-10T20:28:52.154Z,99518.19
2022-11-10T20:31:22.296Z,99520.69
2022-11-10T20:33:49.783Z,99514.28
2022-11-10T20:36:27.947Z,99514.38
2022-11-10T20:38:56.134Z,99518.88
2022-11-10T20:41:25.458Z,99505.75
2022-11-10T20:43:52.526Z,99510.84
2022-11-10T20:49:08.189Z,99519.66
2022-11-10T20:51:35.044Z,99520.69
2022-11-10T20:54:01.882Z,99523.59
2022-11-10T20:56:30.084Z,99536.25
2022-11-10T20:58:59.252Z,99528.78
2022-11-10T21:01:26.331Z,99523.66
2022-11-10T21:03:53.436Z,99526.94
2022-11-10T21:06:20.341Z,99523.09
2022-11-10T21:08:47.175Z,99522.94
2022-11-10T21:11:33.736Z,99530.53
2022-11-10T21:14:01.660Z,99534.03
2022-11-10T21:16:28.896Z,99536.56
2022-11-10T21:18:56.752Z,99526.97
2022-11-10T21:21:34.137Z,99544.13
2022-11-10T21:24:01.262Z,99542.63
2022-11-10T21:26:28.289Z,99549.28
2022-11-10T21:28:55.221Z,99547.47
2022-11-10T21:31:22.066Z,99550.72
2022-11-10T21:33:48.767Z,99548.16
2022-11-10T21:36:15.866Z,99548.31
2022-11-10T21:38:46.498Z,99544.72
2022-11-10T21:41:13.843Z,99545.38
2022-11-10T21:43:41.290Z,99550.81
2022-11-10T21:46:08.433Z,99556.53
2022-11-10T21:48:35.625Z,99562.34
2022-11-10T21:51:03.453Z,99568.03
2022-11-10T21:53:30.738Z,99563.22
2022-11-10T21:56:05.424Z,99563.31
2022-11-10T21:58:35.228Z,99562.44
2022-11-10T22:01:23.859Z,99570.75
2022-11-10T22:03:50.826Z,99576.78
2022-11-10T22:06:18.263Z,99577.41
2022-11-10T22:08:46.602Z,99576.09
2022-11-10T22:11:34.223Z,99581.31
2022-11-10T22:14:19.900Z,99583.81
2022-11-10T22:17:09.753Z,99577.13
2022-11-10T22:19:37.423Z,99584.44
2022-11-10T22:22:04.575Z,99579.63
2022-11-10T22:24:31.899Z,99582.81
2022-11-10T22:27:03.641Z,99578.72
2022-11-10T22:29:33.460Z,99579.56
2022-11-10T22:32:01.043Z,99581.37
2022-11-10T22:34:28.001Z,99580.19
2022-11-10T22:36:54.850Z,99583.78
2022-11-10T22:39:21.503Z,99579.50
2022-11-10T22:42:07.486Z,99585.25
2022-11-10T22:44:34.452Z,99583.72
2022-11-10T22:47:01.321Z,99576.59
2022-11-10T22:49:27.982Z,99579.06
2022-11-10T22:51:55.623Z,99577.91
2022-11-10T22:54:24.572Z,99572.34
2022-11-10T22:56:52.099Z,99563.16
2022-11-10T22:59:19.562Z,99564.63
2022-11-10T23:01:46.615Z,99558.13
2022-11-10T23:04:16.112Z,99558.56
2022-11-10T23:06:43.672Z,99572.06
2022-11-10T23:09:10.715Z,99572.78
2022-11-10T23:11:37.617Z,99567.09
2022-11-10T23:14:04.548Z,99565.38
2022-11-10T23:16:34.718Z,99558.91
2022-11-10T23:19:01.741Z,99555.41
2022-11-10T23:21:30.539Z,99552.47
2022-11-10T23:23:57.460Z,99556.28
2022-11-10T23:26:34.102Z,99556.78
2022-11-10T23:29:01.014Z,99560.34
2022-11-10T23:31:28.769Z,99567.78
2022-11-10T23:33:56.456Z,99556.09
2022-11-10T23:36:24.877Z,99562.84
2022-11-10T23:38:51.952Z,99559.03
2022-11-10T23:41:20.874Z,99549.34
2022-11-10T23:43:47.818Z,99552.56
2022-11-10T23:46:15.097Z,99562.19
2022-11-10T23:48:42.729Z,99560.59
2022-11-10T23:51:12.185Z,99551.47
2022-11-10T23:53:39.356Z,99561.31
2022-11-10T23:56:10.573Z,99553.44
2022-11-10T23:58:38.434Z,99557.38
